Terminal Aerodrome Forecast
Issued by NWS

Home | Current Version | Previous Version | Text Only | Print | Product List | Glossary On
Versions: 1 2 3 4 5 6 7 8 9 10 11 12 13 14 15 16 17 18 19 20 21 22
000
FTUS45 KBOU 191126
TAFAPA
TAF
KAPA 191126Z 1912/2012 21011KT P6SM FEW130 BKN220
     FM191400 VRB05KT P6SM SCT140
     FM192200 20013G25KT P6SM FEW080 SCT140
      TEMPO 1922/2002 VRB20G35KT -TSRA BKN080CB
     FM200200 19011KT P6SM FEW080 SCT140 BKN220=

USA.gov is the U.S. government's official web portal to all federal, state and local government web resources and services.